Alsea, Oregon
Current Conditions -  °F | °C
As of 2:15 PM on Saturday 20 Dec 2014 (Local Time) from KCVO Reporting Station
Overcast Overcast  
Wind Chill: 55°   Ceiling: 6000
Heat Index: 55°   Visibility: 4mi
Dew Point: 50°   Wind: 17mph
Humidity: 82%   Direction: 170°S
Pressure: 29.71"   Gusts: NA
Location:  44.38°N, 123.6°W
Report Text: KCVO 202215Z AUTO 17015KT 4SM BKN060 OVC075 13/10 A2971 RMK AO1 P0003
Loading
Personal Weather Stations






























Interactive Weather Map New forecast layout! Learn more

10-Day Weather Forecast

Advertisements
Track Severe Weather on mobile